WMT2400 LATI-LIBP
Flight info
| Callsign | WMT2400 |
|---|---|
| Flight time | 0h 56m |
| Altitude | 38000 |
| Route | DIRES DCT PAPIZ DCT ENOXA DCT BANAV DCT GARGA DCT RIVAM/N0359F180 M169 ERPOG |
| Aircraft | A21N/M-SDE3FGHIRWY/LB1 |
Departure
| Time | 2026-04-22 12:00 |
|---|---|
| Airport | Tirana International Airport Mother Teresa (LATI) |
Arrival
| Time | 2026-04-22 12:56 |
|---|---|
| Airport | Abruzzo Airport (LIBP) |
| Time | Latitude | Longitude | Altitude | Speed | Heading |
|---|---|---|---|---|---|
| 2026-04-22 11:28 | 41.42104 | 19.71490 | 118 ft | 0 kts | 265° |
| 2026-04-22 11:45 | 41.42105 | 19.71503 | 118 ft | 3 kts | 265° |
| 2026-04-22 11:45 | 41.42107 | 19.71535 | 118 ft | 3 kts | 265° |
| 2026-04-22 11:46 | 41.42109 | 19.71570 | 118 ft | 3 kts | 265° |
| 2026-04-22 11:46 | 41.42109 | 19.71573 | 118 ft | 0 kts | 265° |
| 2026-04-22 11:48 | 41.42109 | 19.71572 | 119 ft | 0 kts | 259° |
| 2026-04-22 11:49 | 41.42093 | 19.71563 | 119 ft | 3 kts | 180° |
| 2026-04-22 11:49 | 41.42090 | 19.71564 | 119 ft | 0 kts | 174° |
| 2026-04-22 11:52 | 41.42089 | 19.71564 | 119 ft | 0 kts | 174° |
| 2026-04-22 11:52 | 41.42027 | 19.71572 | 120 ft | 18 kts | 174° |
| 2026-04-22 11:53 | 41.41872 | 19.71593 | 121 ft | 22 kts | 175° |
| 2026-04-22 11:53 | 41.41724 | 19.71613 | 122 ft | 20 kts | 175° |
| 2026-04-22 11:53 | 41.41586 | 19.71631 | 124 ft | 19 kts | 173° |
| 2026-04-22 11:53 | 41.41453 | 19.71648 | 125 ft | 18 kts | 175° |
| 2026-04-22 11:54 | 41.41324 | 19.71665 | 127 ft | 19 kts | 174° |
| 2026-04-22 11:54 | 41.41188 | 19.71683 | 128 ft | 20 kts | 174° |
| 2026-04-22 11:54 | 41.41042 | 19.71700 | 129 ft | 21 kts | 176° |
| 2026-04-22 11:54 | 41.40902 | 19.71731 | 130 ft | 19 kts | 170° |
| 2026-04-22 11:55 | 41.40769 | 19.71757 | 131 ft | 18 kts | 173° |
| 2026-04-22 11:55 | 41.40642 | 19.71774 | 131 ft | 18 kts | 175° |
| 2026-04-22 11:55 | 41.40537 | 19.71788 | 132 ft | 19 kts | 174° |
| 2026-04-22 11:55 | 41.40419 | 19.71807 | 133 ft | 12 kts | 167° |
| 2026-04-22 11:56 | 41.40345 | 19.71868 | 133 ft | 12 kts | 142° |
| 2026-04-22 11:56 | 41.40274 | 19.71943 | 134 ft | 12 kts | 141° |
| 2026-04-22 11:56 | 41.40243 | 19.72047 | 134 ft | 12 kts | 86° |
| 2026-04-22 11:56 | 41.40245 | 19.72076 | 134 ft | 0 kts | 85° |
| 2026-04-22 11:57 | 41.40247 | 19.72104 | 134 ft | 8 kts | 85° |
| 2026-04-22 11:57 | 41.40279 | 19.72207 | 134 ft | 13 kts | 21° |
| 2026-04-22 11:58 | 41.40336 | 19.72205 | 134 ft | 0 kts | 353° |
| 2026-04-22 11:59 | 41.40348 | 19.72203 | 134 ft | 8 kts | 353° |
| 2026-04-22 11:59 | 41.40654 | 19.72162 | 132 ft | 81 kts | 354° |
| 2026-04-22 11:59 | 41.41446 | 19.72059 | 127 ft | 144 kts | 354° |
| 2026-04-22 11:59 | 41.42532 | 19.71923 | 537 ft | 157 kts | 353° |
| 2026-04-22 12:00 | 41.43595 | 19.71788 | 1240 ft | 153 kts | 355° |
| 2026-04-22 12:00 | 41.44642 | 19.71663 | 1907 ft | 150 kts | 355° |
| 2026-04-22 12:00 | 41.45680 | 19.71528 | 2315 ft | 157 kts | 355° |
| 2026-04-22 12:00 | 41.46819 | 19.71345 | 2731 ft | 166 kts | 353° |
| 2026-04-22 12:01 | 41.47973 | 19.71037 | 3125 ft | 177 kts | 337° |
| 2026-04-22 12:01 | 41.48828 | 19.69791 | 3400 ft | 199 kts | 292° |
| 2026-04-22 12:01 | 41.49242 | 19.67927 | 3764 ft | 218 kts | 286° |
| 2026-04-22 12:01 | 41.49652 | 19.65890 | 4190 ft | 236 kts | 288° |
| 2026-04-22 12:02 | 41.50142 | 19.63712 | 4635 ft | 253 kts | 289° |
| 2026-04-22 12:02 | 41.50713 | 19.61407 | 5177 ft | 267 kts | 290° |
| 2026-04-22 12:02 | 41.51320 | 19.59074 | 5983 ft | 270 kts | 291° |
| 2026-04-22 12:02 | 41.51951 | 19.56716 | 6832 ft | 271 kts | 291° |
| 2026-04-22 12:03 | 41.52589 | 19.54368 | 7688 ft | 272 kts | 291° |
| 2026-04-22 12:03 | 41.53230 | 19.52035 | 8547 ft | 272 kts | 291° |
| 2026-04-22 12:03 | 41.53882 | 19.49666 | 9390 ft | 272 kts | 291° |
| 2026-04-22 12:03 | 41.54535 | 19.47302 | 10233 ft | 272 kts | 290° |
| 2026-04-22 12:04 | 41.55193 | 19.44927 | 10836 ft | 281 kts | 290° |
| 2026-04-22 12:04 | 41.55887 | 19.42422 | 11357 ft | 292 kts | 290° |
| 2026-04-22 12:04 | 41.56591 | 19.39883 | 12054 ft | 296 kts | 290° |
| 2026-04-22 12:04 | 41.57303 | 19.37308 | 12756 ft | 298 kts | 290° |
| 2026-04-22 12:05 | 41.58026 | 19.34694 | 13491 ft | 300 kts | 289° |
| 2026-04-22 12:05 | 41.58745 | 19.32088 | 14203 ft | 302 kts | 289° |
| 2026-04-22 12:05 | 41.59471 | 19.29453 | 14913 ft | 303 kts | 289° |
| 2026-04-22 12:05 | 41.60197 | 19.26823 | 15642 ft | 302 kts | 289° |
| 2026-04-22 12:06 | 41.60918 | 19.24210 | 16362 ft | 302 kts | 289° |
| 2026-04-22 12:06 | 41.61637 | 19.21596 | 17068 ft | 301 kts | 289° |
| 2026-04-22 12:06 | 41.62349 | 19.19010 | 17742 ft | 301 kts | 288° |
| 2026-04-22 12:06 | 41.63072 | 19.16369 | 18390 ft | 301 kts | 288° |
| 2026-04-22 12:07 | 41.63783 | 19.13776 | 19025 ft | 301 kts | 289° |
| 2026-04-22 12:07 | 41.64499 | 19.11155 | 19656 ft | 301 kts | 289° |
| 2026-04-22 12:07 | 41.65212 | 19.08552 | 20278 ft | 300 kts | 289° |
| 2026-04-22 12:07 | 41.65931 | 19.05914 | 20868 ft | 301 kts | 289° |
| 2026-04-22 12:08 | 41.66653 | 19.03275 | 21299 ft | 305 kts | 289° |
| 2026-04-22 12:08 | 41.67379 | 19.00613 | 21817 ft | 307 kts | 290° |
| 2026-04-22 12:08 | 41.68106 | 18.97939 | 22372 ft | 307 kts | 290° |
| 2026-04-22 12:08 | 41.68829 | 18.95287 | 22889 ft | 307 kts | 290° |
| 2026-04-22 12:09 | 41.69561 | 18.92596 | 23399 ft | 308 kts | 290° |
| 2026-04-22 12:09 | 41.70295 | 18.89897 | 23878 ft | 309 kts | 290° |
| 2026-04-22 12:09 | 41.71034 | 18.87185 | 24076 ft | 318 kts | 290° |
| 2026-04-22 12:09 | 41.71790 | 18.84389 | 24406 ft | 322 kts | 290° |
| 2026-04-22 12:10 | 41.72551 | 18.81578 | 24841 ft | 324 kts | 290° |
| 2026-04-22 12:10 | 41.73317 | 18.78749 | 25254 ft | 325 kts | 290° |
| 2026-04-22 12:10 | 41.74088 | 18.75897 | 25655 ft | 327 kts | 290° |
| 2026-04-22 12:10 | 41.74861 | 18.73036 | 26081 ft | 328 kts | 290° |
| 2026-04-22 12:11 | 41.75630 | 18.70189 | 26457 ft | 329 kts | 290° |
| 2026-04-22 12:11 | 41.76406 | 18.67297 | 26791 ft | 331 kts | 290° |
| 2026-04-22 12:11 | 41.77182 | 18.64407 | 27128 ft | 333 kts | 290° |
| 2026-04-22 12:11 | 41.77967 | 18.61484 | 27457 ft | 335 kts | 290° |
| 2026-04-22 12:12 | 41.78754 | 18.58550 | 27836 ft | 336 kts | 290° |
| 2026-04-22 12:12 | 41.79546 | 18.55593 | 27988 ft | 337 kts | 290° |
| 2026-04-22 12:12 | 41.80326 | 18.52681 | 27990 ft | 336 kts | 290° |
| 2026-04-22 12:12 | 41.81120 | 18.49715 | 27999 ft | 336 kts | 291° |
| 2026-04-22 12:13 | 41.81903 | 18.46781 | 27991 ft | 336 kts | 290° |
| 2026-04-22 12:13 | 41.82689 | 18.43831 | 27997 ft | 336 kts | 290° |
| 2026-04-22 12:13 | 41.83469 | 18.40908 | 28000 ft | 335 kts | 291° |
| 2026-04-22 12:13 | 41.84255 | 18.37965 | 27994 ft | 335 kts | 290° |
| 2026-04-22 12:14 | 41.85806 | 18.32112 | 28008 ft | 335 kts | 290° |
| 2026-04-22 12:14 | 41.86583 | 18.29179 | 27999 ft | 334 kts | 290° |
| 2026-04-22 12:14 | 41.87358 | 18.26251 | 27994 ft | 335 kts | 290° |
| 2026-04-22 12:15 | 41.88919 | 18.20341 | 27999 ft | 334 kts | 290° |
| 2026-04-22 12:15 | 41.90457 | 18.14515 | 27995 ft | 334 kts | 290° |
| 2026-04-22 12:16 | 41.91233 | 18.11567 | 27988 ft | 334 kts | 290° |
| 2026-04-22 12:16 | 41.92004 | 18.08640 | 27996 ft | 334 kts | 290° |
| 2026-04-22 12:16 | 41.93546 | 18.02749 | 28005 ft | 334 kts | 290° |
| 2026-04-22 12:17 | 41.95087 | 17.96866 | 28001 ft | 334 kts | 290° |
| 2026-04-22 12:17 | 41.96619 | 17.90998 | 28003 ft | 334 kts | 290° |
| 2026-04-22 12:18 | 41.98074 | 17.85405 | 28006 ft | 333 kts | 290° |
| 2026-04-22 12:18 | 41.99597 | 17.79539 | 27997 ft | 333 kts | 290° |
| 2026-04-22 12:19 | 42.01116 | 17.73681 | 27997 ft | 333 kts | 290° |
| 2026-04-22 12:19 | 42.02644 | 17.67772 | 27996 ft | 333 kts | 290° |
| 2026-04-22 12:20 | 42.04156 | 17.61923 | 28007 ft | 333 kts | 290° |
| 2026-04-22 12:20 | 42.05667 | 17.56064 | 28005 ft | 333 kts | 291° |
| 2026-04-22 12:21 | 42.07179 | 17.50160 | 28010 ft | 333 kts | 290° |
| 2026-04-22 12:21 | 42.08690 | 17.44256 | 28001 ft | 334 kts | 290° |
| 2026-04-22 12:22 | 42.10203 | 17.38343 | 28007 ft | 334 kts | 290° |
| 2026-04-22 12:22 | 42.11705 | 17.32440 | 28012 ft | 334 kts | 290° |
| 2026-04-22 12:23 | 42.13211 | 17.26504 | 28000 ft | 333 kts | 290° |
| 2026-04-22 12:23 | 42.14710 | 17.20591 | 28000 ft | 334 kts | 290° |
| 2026-04-22 12:24 | 42.16206 | 17.14675 | 28004 ft | 335 kts | 290° |
| 2026-04-22 12:24 | 42.16951 | 17.11721 | 27998 ft | 335 kts | 290° |
| 2026-04-22 12:24 | 42.17707 | 17.08720 | 28009 ft | 334 kts | 290° |
| 2026-04-22 12:25 | 42.18448 | 17.05784 | 27999 ft | 335 kts | 290° |
| 2026-04-22 12:25 | 42.19192 | 17.02829 | 28004 ft | 335 kts | 290° |
| 2026-04-22 12:25 | 42.20678 | 16.96902 | 28006 ft | 334 kts | 290° |
| 2026-04-22 12:26 | 42.22170 | 16.90944 | 28010 ft | 335 kts | 290° |
| 2026-04-22 12:26 | 42.23656 | 16.85005 | 28026 ft | 335 kts | 290° |
| 2026-04-22 12:27 | 42.25141 | 16.79041 | 28020 ft | 335 kts | 290° |
| 2026-04-22 12:27 | 42.26620 | 16.73086 | 28027 ft | 336 kts | 290° |
| 2026-04-22 12:28 | 42.28102 | 16.67116 | 28031 ft | 336 kts | 290° |
| 2026-04-22 12:28 | 42.29581 | 16.61136 | 28024 ft | 337 kts | 289° |
| 2026-04-22 12:29 | 42.31047 | 16.55162 | 28032 ft | 336 kts | 290° |
| 2026-04-22 12:29 | 42.32006 | 16.51262 | 28028 ft | 336 kts | 290° |
| 2026-04-22 12:30 | 42.33232 | 16.46263 | 28035 ft | 336 kts | 290° |
| 2026-04-22 12:31 | 42.33831 | 16.43820 | 28032 ft | 336 kts | 290° |
| 2026-04-22 12:31 | 42.35300 | 16.37823 | 28022 ft | 337 kts | 290° |
| 2026-04-22 12:32 | 42.36762 | 16.31824 | 28031 ft | 337 kts | 289° |
| 2026-04-22 12:32 | 42.38962 | 16.22793 | 28039 ft | 336 kts | 289° |
| 2026-04-22 12:33 | 42.40413 | 16.16796 | 28036 ft | 336 kts | 290° |
| 2026-04-22 12:33 | 42.41867 | 16.10792 | 28042 ft | 336 kts | 289° |
| 2026-04-22 12:34 | 42.43317 | 16.04785 | 28036 ft | 336 kts | 290° |
| 2026-04-22 12:34 | 42.44759 | 15.98788 | 28041 ft | 337 kts | 290° |
| 2026-04-22 12:35 | 42.45489 | 15.95766 | 27787 ft | 338 kts | 289° |
| 2026-04-22 12:35 | 42.46210 | 15.92756 | 27273 ft | 335 kts | 289° |
| 2026-04-22 12:35 | 42.46915 | 15.89801 | 26794 ft | 331 kts | 290° |
| 2026-04-22 12:35 | 42.47618 | 15.86861 | 26338 ft | 327 kts | 290° |
| 2026-04-22 12:36 | 42.48308 | 15.83978 | 25886 ft | 323 kts | 289° |
| 2026-04-22 12:36 | 42.48975 | 15.81080 | 25420 ft | 320 kts | 287° |
| 2026-04-22 12:36 | 42.49425 | 15.78147 | 24927 ft | 318 kts | 282° |
| 2026-04-22 12:36 | 42.49655 | 15.75166 | 24435 ft | 318 kts | 278° |
| 2026-04-22 12:37 | 42.49666 | 15.72196 | 23953 ft | 318 kts | 274° |
| 2026-04-22 12:37 | 42.49582 | 15.69250 | 23522 ft | 315 kts | 274° |
| 2026-04-22 12:37 | 42.49493 | 15.66283 | 23083 ft | 312 kts | 273° |
| 2026-04-22 12:37 | 42.49400 | 15.63376 | 22643 ft | 310 kts | 273° |
| 2026-04-22 12:38 | 42.49302 | 15.60479 | 22221 ft | 307 kts | 272° |
| 2026-04-22 12:38 | 42.49206 | 15.57610 | 21794 ft | 304 kts | 272° |
| 2026-04-22 12:38 | 42.49107 | 15.54761 | 21376 ft | 302 kts | 272° |
| 2026-04-22 12:38 | 42.49007 | 15.51966 | 20890 ft | 303 kts | 272° |
| 2026-04-22 12:39 | 42.48906 | 15.49089 | 20342 ft | 304 kts | 271° |
| 2026-04-22 12:39 | 42.48698 | 15.43359 | 19241 ft | 308 kts | 270° |
| 2026-04-22 12:39 | 42.48593 | 15.40497 | 18690 ft | 304 kts | 270° |
| 2026-04-22 12:40 | 42.48488 | 15.37688 | 18148 ft | 299 kts | 270° |
| 2026-04-22 12:40 | 42.48382 | 15.34905 | 17615 ft | 296 kts | 269° |
| 2026-04-22 12:40 | 42.48277 | 15.32144 | 17137 ft | 295 kts | 269° |
| 2026-04-22 12:40 | 42.48172 | 15.29397 | 16794 ft | 286 kts | 269° |
| 2026-04-22 12:41 | 42.48069 | 15.26774 | 16658 ft | 274 kts | 270° |
| 2026-04-22 12:41 | 42.47972 | 15.24252 | 16489 ft | 265 kts | 270° |
| 2026-04-22 12:41 | 42.47877 | 15.21783 | 16350 ft | 259 kts | 270° |
| 2026-04-22 12:41 | 42.47787 | 15.19360 | 16142 ft | 259 kts | 270° |
| 2026-04-22 12:42 | 42.47699 | 15.16944 | 15742 ft | 260 kts | 270° |
| 2026-04-22 12:42 | 42.47609 | 15.14503 | 15352 ft | 261 kts | 270° |
| 2026-04-22 12:42 | 42.47518 | 15.12046 | 14950 ft | 262 kts | 270° |
| 2026-04-22 12:42 | 42.47425 | 15.09568 | 14564 ft | 262 kts | 270° |
| 2026-04-22 12:43 | 42.47333 | 15.07115 | 14194 ft | 262 kts | 269° |
| 2026-04-22 12:43 | 42.47241 | 15.04686 | 13824 ft | 262 kts | 269° |
| 2026-04-22 12:43 | 42.47145 | 15.02209 | 13441 ft | 262 kts | 270° |
| 2026-04-22 12:43 | 42.47049 | 14.99760 | 13072 ft | 262 kts | 270° |
| 2026-04-22 12:44 | 42.46953 | 14.97313 | 12712 ft | 262 kts | 270° |
| 2026-04-22 12:44 | 42.46856 | 14.94854 | 12336 ft | 262 kts | 270° |
| 2026-04-22 12:44 | 42.46761 | 14.92383 | 11964 ft | 262 kts | 270° |
| 2026-04-22 12:44 | 42.46664 | 14.89912 | 11586 ft | 263 kts | 270° |
| 2026-04-22 12:45 | 42.46568 | 14.87462 | 11215 ft | 263 kts | 271° |
| 2026-04-22 12:45 | 42.46469 | 14.84981 | 10847 ft | 263 kts | 271° |
| 2026-04-22 12:45 | 42.46371 | 14.82524 | 10491 ft | 263 kts | 271° |
| 2026-04-22 12:45 | 42.46272 | 14.80038 | 10132 ft | 263 kts | 271° |
| 2026-04-22 12:46 | 42.46173 | 14.77585 | 9769 ft | 263 kts | 271° |
| 2026-04-22 12:46 | 42.46073 | 14.75135 | 9424 ft | 263 kts | 271° |
| 2026-04-22 12:46 | 42.45972 | 14.72656 | 9071 ft | 263 kts | 271° |
| 2026-04-22 12:46 | 42.45879 | 14.70212 | 8722 ft | 262 kts | 271° |
| 2026-04-22 12:47 | 42.45789 | 14.67754 | 8373 ft | 262 kts | 271° |
| 2026-04-22 12:47 | 42.45700 | 14.65298 | 8022 ft | 261 kts | 271° |
| 2026-04-22 12:47 | 42.45611 | 14.62862 | 7696 ft | 260 kts | 271° |
| 2026-04-22 12:47 | 42.45517 | 14.60403 | 7359 ft | 259 kts | 271° |
| 2026-04-22 12:48 | 42.45431 | 14.58002 | 7157 ft | 251 kts | 273° |
| 2026-04-22 12:48 | 42.45713 | 14.55774 | 7021 ft | 233 kts | 301° |
| 2026-04-22 12:48 | 42.46716 | 14.54133 | 6810 ft | 227 kts | 327° |
| 2026-04-22 12:48 | 42.48133 | 14.53276 | 6496 ft | 223 kts | 345° |
| 2026-04-22 12:49 | 42.49614 | 14.52699 | 6190 ft | 223 kts | 345° |
| 2026-04-22 12:49 | 42.51098 | 14.52108 | 5886 ft | 223 kts | 345° |
| 2026-04-22 12:49 | 42.52595 | 14.51503 | 5588 ft | 222 kts | 345° |
| 2026-04-22 12:49 | 42.54035 | 14.50905 | 5529 ft | 217 kts | 342° |
| 2026-04-22 12:50 | 42.55333 | 14.49828 | 5413 ft | 222 kts | 318° |
| 2026-04-22 12:50 | 42.56320 | 14.48217 | 5111 ft | 223 kts | 311° |
| 2026-04-22 12:50 | 42.57253 | 14.46552 | 4813 ft | 221 kts | 310° |
| 2026-04-22 12:50 | 42.58184 | 14.44894 | 4523 ft | 220 kts | 311° |
| 2026-04-22 12:51 | 42.59115 | 14.43249 | 4238 ft | 219 kts | 311° |
| 2026-04-22 12:51 | 42.60043 | 14.41620 | 3954 ft | 218 kts | 311° |
| 2026-04-22 12:51 | 42.60949 | 14.39974 | 3655 ft | 220 kts | 304° |
| 2026-04-22 12:51 | 42.61291 | 14.37971 | 3324 ft | 226 kts | 263° |
| 2026-04-22 12:52 | 42.60549 | 14.36128 | 3212 ft | 232 kts | 225° |
| 2026-04-22 12:52 | 42.59259 | 14.34759 | 3140 ft | 234 kts | 216° |
| 2026-04-22 12:52 | 42.57905 | 14.33501 | 3041 ft | 235 kts | 216° |
| 2026-04-22 12:52 | 42.56563 | 14.32202 | 2782 ft | 238 kts | 218° |
| 2026-04-22 12:53 | 42.55254 | 14.30871 | 2475 ft | 236 kts | 219° |
| 2026-04-22 12:53 | 42.53979 | 14.29547 | 2222 ft | 221 kts | 219° |
| 2026-04-22 12:53 | 42.52768 | 14.28286 | 2159 ft | 216 kts | 219° |
| 2026-04-22 12:53 | 42.51624 | 14.27099 | 1997 ft | 197 kts | 219° |
| 2026-04-22 12:54 | 42.50590 | 14.26029 | 1731 ft | 181 kts | 219° |
| 2026-04-22 12:54 | 42.49621 | 14.25026 | 1484 ft | 165 kts | 219° |
| 2026-04-22 12:54 | 42.48751 | 14.24125 | 1233 ft | 150 kts | 219° |
| 2026-04-22 12:54 | 42.47947 | 14.23292 | 1030 ft | 143 kts | 219° |
| 2026-04-22 12:55 | 42.47152 | 14.22472 | 856 ft | 142 kts | 218° |
| 2026-04-22 12:55 | 42.46360 | 14.21665 | 662 ft | 140 kts | 220° |
| 2026-04-22 12:55 | 42.45596 | 14.20840 | 462 ft | 141 kts | 219° |
| 2026-04-22 12:55 | 42.44822 | 14.20052 | 279 ft | 138 kts | 219° |
| 2026-04-22 12:56 | 42.44051 | 14.19255 | 116 ft | 139 kts | 218° |
| 2026-04-22 12:56 | 42.43316 | 14.18491 | 40 ft | 118 kts | 217° |
| 2026-04-22 12:56 | 42.42796 | 14.17953 | 44 ft | 67 kts | 217° |
| 2026-04-22 12:56 | 42.42489 | 14.17637 | 50 ft | 45 kts | 217° |
| 2026-04-22 12:57 | 42.42373 | 14.17519 | 53 ft | 9 kts | 216° |
| 2026-04-22 12:57 | 42.42313 | 14.17482 | 53 ft | 9 kts | 182° |
| 2026-04-22 12:57 | 42.42272 | 14.17545 | 53 ft | 10 kts | 90° |
| 2026-04-22 12:57 | 42.42277 | 14.17651 | 52 ft | 11 kts | 84° |
| 2026-04-22 12:58 | 42.42319 | 14.17747 | 51 ft | 13 kts | 38° |
| 2026-04-22 12:58 | 42.42397 | 14.17826 | 50 ft | 14 kts | 36° |
| 2026-04-22 12:58 | 42.42481 | 14.17913 | 48 ft | 15 kts | 37° |
| 2026-04-22 12:58 | 42.42574 | 14.18008 | 46 ft | 17 kts | 37° |
| 2026-04-22 12:59 | 42.42670 | 14.18109 | 44 ft | 17 kts | 38° |
| 2026-04-22 12:59 | 42.42771 | 14.18212 | 42 ft | 18 kts | 36° |
| 2026-04-22 12:59 | 42.42870 | 14.18313 | 42 ft | 15 kts | 38° |
| 2026-04-22 12:59 | 42.42957 | 14.18406 | 41 ft | 16 kts | 37° |
| 2026-04-22 13:00 | 42.43009 | 14.18484 | 41 ft | 10 kts | 69° |
| 2026-04-22 13:00 | 42.43022 | 14.18580 | 41 ft | 6 kts | 77° |
| 2026-04-22 13:00 | 42.43027 | 14.18636 | 41 ft | 6 kts | 102° |
| 2026-04-22 13:00 | 42.43007 | 14.18683 | 41 ft | 0 kts | 126° |
| 2026-04-22 13:01 | 42.43004 | 14.18688 | 41 ft | 0 kts | 127° |